sensor_id;sensor_type;location;lat;lon;timestamp;P1;durP1;ratioP1;P2;durP2;ratioP2
19004;SDS011;9635;52.078;8.648;2023-04-01T00:00:32;6.40;;;2.10;;
19004;SDS011;9635;52.078;8.648;2023-04-01T00:05:37;5.70;;;1.67;;
19004;SDS011;9635;52.078;8.648;2023-04-01T00:10:40;3.13;;;1.52;;
19004;SDS011;9635;52.078;8.648;2023-04-01T00:15:42;1.40;;;1.25;;
19004;SDS011;9635;52.078;8.648;2023-04-01T00:20:48;2.60;;;1.00;;
19004;SDS011;9635;52.078;8.648;2023-04-01T00:25:52;3.95;;;1.27;;
19004;SDS011;9635;52.078;8.648;2023-04-01T00:30:54;1.77;;;1.00;;
19004;SDS011;9635;52.078;8.648;2023-04-01T00:36:06;1.77;;;0.98;;
19004;SDS011;9635;52.078;8.648;2023-04-01T00:41:11;2.67;;;0.90;;
19004;SDS011;9635;52.078;8.648;2023-04-01T00:46:16;2.97;;;0.98;;
19004;SDS011;9635;52.078;8.648;2023-04-01T00:51:22;2.97;;;0.90;;
19004;SDS011;9635;52.078;8.648;2023-04-01T00:56:30;2.25;;;0.95;;
19004;SDS011;9635;52.078;8.648;2023-04-01T01:01:35;1.42;;;0.60;;
19004;SDS011;9635;52.078;8.648;2023-04-01T01:06:42;1.35;;;0.63;;
19004;SDS011;9635;52.078;8.648;2023-04-01T01:11:54;2.90;;;0.90;;
19004;SDS011;9635;52.078;8.648;2023-04-01T01:17:06;4.97;;;1.35;;
19004;SDS011;9635;52.078;8.648;2023-04-01T01:22:23;3.85;;;0.90;;
19004;SDS011;9635;52.078;8.648;2023-04-01T01:27:37;3.67;;;0.77;;
19004;SDS011;9635;52.078;8.648;2023-04-01T01:38:16;2.40;;;0.95;;
19004;SDS011;9635;52.078;8.648;2023-04-01T01:43:29;2.20;;;0.70;;
19004;SDS011;9635;52.078;8.648;2023-04-01T01:48:34;1.50;;;0.60;;
19004;SDS011;9635;52.078;8.648;2023-04-01T01:53:39;2.65;;;0.57;;
19004;SDS011;9635;52.078;8.648;2023-04-01T01:58:43;1.95;;;0.60;;
19004;SDS011;9635;52.078;8.648;2023-04-01T02:03:53;2.47;;;0.70;;
19004;SDS011;9635;52.078;8.648;2023-04-01T02:08:59;1.90;;;0.60;;
19004;SDS011;9635;52.078;8.648;2023-04-01T02:14:06;0.80;;;0.40;;
19004;SDS011;9635;52.078;8.648;2023-04-01T02:19:13;2.38;;;0.45;;
19004;SDS011;9635;52.078;8.648;2023-04-01T02:24:26;1.63;;;0.47;;
19004;SDS011;9635;52.078;8.648;2023-04-01T02:29:32;1.40;;;0.40;;
19004;SDS011;9635;52.078;8.648;2023-04-01T02:34:35;2.17;;;0.60;;
19004;SDS011;9635;52.078;8.648;2023-04-01T02:39:40;2.25;;;0.70;;
19004;SDS011;9635;52.078;8.648;2023-04-01T02:44:44;0.93;;;0.40;;
19004;SDS011;9635;52.078;8.648;2023-04-01T02:49:47;2.45;;;0.52;;
19004;SDS011;9635;52.078;8.648;2023-04-01T02:54:52;1.83;;;0.40;;
19004;SDS011;9635;52.078;8.648;2023-04-01T02:59:55;1.48;;;0.45;;
19004;SDS011;9635;52.078;8.648;2023-04-01T03:04:58;2.03;;;0.60;;
19004;SDS011;9635;52.078;8.648;2023-04-01T03:10:02;1.83;;;0.50;;
19004;SDS011;9635;52.078;8.648;2023-04-01T03:15:05;2.53;;;0.50;;
19004;SDS011;9635;52.078;8.648;2023-04-01T03:20:13;5.18;;;0.88;;
19004;SDS011;9635;52.078;8.648;2023-04-01T03:25:17;3.47;;;0.40;;
19004;SDS011;9635;52.078;8.648;2023-04-01T03:30:21;2.53;;;0.30;;
19004;SDS011;9635;52.078;8.648;2023-04-01T03:35:24;1.27;;;0.38;;
19004;SDS011;9635;52.078;8.648;2023-04-01T03:40:29;2.92;;;0.60;;
19004;SDS011;9635;52.078;8.648;2023-04-01T03:45:32;0.45;;;0.35;;
19004;SDS011;9635;52.078;8.648;2023-04-01T03:50:35;0.65;;;0.40;;
19004;SDS011;9635;52.078;8.648;2023-04-01T03:55:39;2.65;;;0.55;;
19004;SDS011;9635;52.078;8.648;2023-04-01T04:00:42;2.35;;;0.40;;
19004;SDS011;9635;52.078;8.648;2023-04-01T04:05:46;0.98;;;0.60;;
19004;SDS011;9635;52.078;8.648;2023-04-01T04:10:55;1.40;;;0.40;;
19004;SDS011;9635;52.078;8.648;2023-04-01T04:15:59;0.50;;;0.40;;
19004;SDS011;9635;52.078;8.648;2023-04-01T04:21:03;1.10;;;0.30;;
19004;SDS011;9635;52.078;8.648;2023-04-01T04:26:08;3.20;;;0.80;;
19004;SDS011;9635;52.078;8.648;2023-04-01T04:31:13;2.88;;;0.68;;
19004;SDS011;9635;52.078;8.648;2023-04-01T04:36:21;1.92;;;0.70;;
19004;SDS011;9635;52.078;8.648;2023-04-01T04:41:27;1.60;;;0.50;;
19004;SDS011;9635;52.078;8.648;2023-04-01T04:46:30;7.20;;;0.95;;
19004;SDS011;9635;52.078;8.648;2023-04-01T04:51:45;2.35;;;0.60;;
19004;SDS011;9635;52.078;8.648;2023-04-01T04:56:51;2.60;;;0.68;;
19004;SDS011;9635;52.078;8.648;2023-04-01T05:01:56;2.05;;;0.50;;
19004;SDS011;9635;52.078;8.648;2023-04-01T05:06:59;2.00;;;0.50;;
19004;SDS011;9635;52.078;8.648;2023-04-01T05:12:04;1.42;;;0.43;;
19004;SDS011;9635;52.078;8.648;2023-04-01T05:17:39;1.08;;;0.52;;
19004;SDS011;9635;52.078;8.648;2023-04-01T05:22:43;0.73;;;0.40;;
19004;SDS011;9635;52.078;8.648;2023-04-01T05:27:48;0.90;;;0.52;;
19004;SDS011;9635;52.078;8.648;2023-04-01T05:32:50;0.82;;;0.47;;
19004;SDS011;9635;52.078;8.648;2023-04-01T05:37:54;0.57;;;0.40;;
19004;SDS011;9635;52.078;8.648;2023-04-01T05:42:58;0.82;;;0.60;;
19004;SDS011;9635;52.078;8.648;2023-04-01T05:48:01;0.90;;;0.80;;
19004;SDS011;9635;52.078;8.648;2023-04-01T05:53:11;1.42;;;0.68;;
19004;SDS011;9635;52.078;8.648;2023-04-01T05:58:18;0.52;;;0.40;;
19004;SDS011;9635;52.078;8.648;2023-04-01T06:03:21;1.75;;;0.60;;
19004;SDS011;9635;52.078;8.648;2023-04-01T06:08:25;1.75;;;0.60;;
19004;SDS011;9635;52.078;8.648;2023-04-01T06:13:36;0.57;;;0.50;;
19004;SDS011;9635;52.078;8.648;2023-04-01T06:18:52;1.27;;;0.30;;
19004;SDS011;9635;52.078;8.648;2023-04-01T06:24:08;0.82;;;0.30;;
19004;SDS011;9635;52.078;8.648;2023-04-01T06:29:29;1.30;;;0.65;;
19004;SDS011;9635;52.078;8.648;2023-04-01T06:34:55;1.00;;;0.40;;
19004;SDS011;9635;52.078;8.648;2023-04-01T06:45:55;1.73;;;1.27;;
19004;SDS011;9635;52.078;8.648;2023-04-01T06:51:26;1.85;;;0.60;;
19004;SDS011;9635;52.078;8.648;2023-04-01T06:56:58;1.85;;;0.50;;
19004;SDS011;9635;52.078;8.648;2023-04-01T07:02:14;1.88;;;0.70;;
19004;SDS011;9635;52.078;8.648;2023-04-01T07:07:27;1.23;;;0.50;;
19004;SDS011;9635;52.078;8.648;2023-04-01T07:12:40;2.40;;;0.80;;
19004;SDS011;9635;52.078;8.648;2023-04-01T07:18:23;1.63;;;0.73;;
19004;SDS011;9635;52.078;8.648;2023-04-01T07:23:33;2.67;;;0.90;;
19004;SDS011;9635;52.078;8.648;2023-04-01T07:28:56;2.95;;;0.60;;
19004;SDS011;9635;52.078;8.648;2023-04-01T07:34:15;0.90;;;0.68;;
19004;SDS011;9635;52.078;8.648;2023-04-01T07:39:28;3.03;;;0.80;;
19004;SDS011;9635;52.078;8.648;2023-04-01T07:44:48;1.63;;;0.85;;
19004;SDS011;9635;52.078;8.648;2023-04-01T07:50:05;2.22;;;1.20;;
19004;SDS011;9635;52.078;8.648;2023-04-01T07:55:16;2.53;;;0.85;;
19004;SDS011;9635;52.078;8.648;2023-04-01T08:00:27;1.38;;;1.00;;
19004;SDS011;9635;52.078;8.648;2023-04-01T08:05:52;1.88;;;1.15;;
19004;SDS011;9635;52.078;8.648;2023-04-01T08:11:02;2.03;;;1.05;;
19004;SDS011;9635;52.078;8.648;2023-04-01T08:16:32;3.00;;;1.48;;
19004;SDS011;9635;52.078;8.648;2023-04-01T08:21:45;2.00;;;1.70;;
19004;SDS011;9635;52.078;8.648;2023-04-01T08:26:53;2.13;;;1.50;;
19004;SDS011;9635;52.078;8.648;2023-04-01T08:32:01;3.53;;;1.58;;
19004;SDS011;9635;52.078;8.648;2023-04-01T08:37:11;2.00;;;1.80;;
19004;SDS011;9635;52.078;8.648;2023-04-01T08:42:37;2.15;;;1.80;;
19004;SDS011;9635;52.078;8.648;2023-04-01T08:47:56;2.15;;;1.75;;
19004;SDS011;9635;52.078;8.648;2023-04-01T08:53:26;2.70;;;1.40;;
19004;SDS011;9635;52.078;8.648;2023-04-01T08:58:55;1.13;;;1.02;;
19004;SDS011;9635;52.078;8.648;2023-04-01T09:04:19;2.63;;;1.33;;
19004;SDS011;9635;52.078;8.648;2023-04-01T09:09:48;1.83;;;1.02;;
19004;SDS011;9635;52.078;8.648;2023-04-01T09:15:30;1.58;;;1.10;;
19004;SDS011;9635;52.078;8.648;2023-04-01T09:21:08;1.08;;;0.90;;
19004;SDS011;9635;52.078;8.648;2023-04-01T09:26:27;1.10;;;1.10;;
19004;SDS011;9635;52.078;8.648;2023-04-01T09:32:03;1.02;;;1.00;;
19004;SDS011;9635;52.078;8.648;2023-04-01T09:37:27;1.30;;;1.20;;
19004;SDS011;9635;52.078;8.648;2023-04-01T09:42:45;2.05;;;0.98;;
19004;SDS011;9635;52.078;8.648;2023-04-01T09:48:05;1.25;;;0.90;;
19004;SDS011;9635;52.078;8.648;2023-04-01T09:53:21;1.75;;;0.90;;
19004;SDS011;9635;52.078;8.648;2023-04-01T09:58:44;1.20;;;0.63;;
19004;SDS011;9635;52.078;8.648;2023-04-01T10:04:39;1.02;;;0.80;;
19004;SDS011;9635;52.078;8.648;2023-04-01T10:15:48;2.60;;;1.10;;
19004;SDS011;9635;52.078;8.648;2023-04-01T10:21:09;1.38;;;0.80;;
19004;SDS011;9635;52.078;8.648;2023-04-01T10:26:45;2.90;;;1.10;;
19004;SDS011;9635;52.078;8.648;2023-04-01T10:32:29;1.90;;;0.90;;
19004;SDS011;9635;52.078;8.648;2023-04-01T10:37:59;0.73;;;0.73;;
19004;SDS011;9635;52.078;8.648;2023-04-01T10:54:47;1.60;;;0.80;;
19004;SDS011;9635;52.078;8.648;2023-04-01T11:06:54;1.77;;;1.33;;
19004;SDS011;9635;52.078;8.648;2023-04-01T11:18:41;1.65;;;1.40;;
19004;SDS011;9635;52.078;8.648;2023-04-01T11:24:06;1.00;;;1.00;;
19004;SDS011;9635;52.078;8.648;2023-04-01T11:29:54;0.95;;;0.63;;
19004;SDS011;9635;52.078;8.648;2023-04-01T11:35:26;1.13;;;1.02;;
19004;SDS011;9635;52.078;8.648;2023-04-01T11:40:45;2.03;;;0.98;;
19004;SDS011;9635;52.078;8.648;2023-04-01T11:46:17;1.42;;;1.00;;
19004;SDS011;9635;52.078;8.648;2023-04-01T11:51:29;0.82;;;0.82;;
19004;SDS011;9635;52.078;8.648;2023-04-01T11:56:48;0.90;;;0.90;;
19004;SDS011;9635;52.078;8.648;2023-04-01T12:02:03;1.20;;;0.93;;
19004;SDS011;9635;52.078;8.648;2023-04-01T12:07:17;1.35;;;0.80;;
19004;SDS011;9635;52.078;8.648;2023-04-01T12:12:27;0.65;;;0.65;;
19004;SDS011;9635;52.078;8.648;2023-04-01T12:17:36;0.85;;;0.80;;
19004;SDS011;9635;52.078;8.648;2023-04-01T12:22:49;0.80;;;0.70;;
19004;SDS011;9635;52.078;8.648;2023-04-01T12:28:05;0.75;;;0.73;;
19004;SDS011;9635;52.078;8.648;2023-04-01T12:33:20;1.52;;;0.70;;
19004;SDS011;9635;52.078;8.648;2023-04-01T12:38:36;0.75;;;0.75;;
19004;SDS011;9635;52.078;8.648;2023-04-01T12:43:53;0.63;;;0.63;;
19004;SDS011;9635;52.078;8.648;2023-04-01T12:49:19;1.00;;;0.90;;
19004;SDS011;9635;52.078;8.648;2023-04-01T13:00:27;0.80;;;0.70;;
19004;SDS011;9635;52.078;8.648;2023-04-01T13:05:54;0.60;;;0.60;;
19004;SDS011;9635;52.078;8.648;2023-04-01T13:11:23;0.60;;;0.60;;
19004;SDS011;9635;52.078;8.648;2023-04-01T13:16:43;0.80;;;0.80;;
19004;SDS011;9635;52.078;8.648;2023-04-01T13:21:56;0.60;;;0.60;;
19004;SDS011;9635;52.078;8.648;2023-04-01T13:27:06;0.55;;;0.50;;
19004;SDS011;9635;52.078;8.648;2023-04-01T13:32:19;0.30;;;0.30;;
19004;SDS011;9635;52.078;8.648;2023-04-01T13:37:47;0.30;;;0.22;;
19004;SDS011;9635;52.078;8.648;2023-04-01T13:43:01;0.40;;;0.40;;
19004;SDS011;9635;52.078;8.648;2023-04-01T13:48:22;0.20;;;0.20;;
19004;SDS011;9635;52.078;8.648;2023-04-01T13:53:40;0.55;;;0.40;;
19004;SDS011;9635;52.078;8.648;2023-04-01T13:59:10;1.85;;;0.63;;
19004;SDS011;9635;52.078;8.648;2023-04-01T14:04:43;0.32;;;0.32;;
19004;SDS011;9635;52.078;8.648;2023-04-01T14:09:58;0.60;;;0.60;;
19004;SDS011;9635;52.078;8.648;2023-04-01T14:15:16;2.50;;;0.93;;
19004;SDS011;9635;52.078;8.648;2023-04-01T14:20:33;0.70;;;0.70;;
19004;SDS011;9635;52.078;8.648;2023-04-01T14:25:55;0.77;;;0.77;;
19004;SDS011;9635;52.078;8.648;2023-04-01T14:36:50;1.15;;;0.93;;
19004;SDS011;9635;52.078;8.648;2023-04-01T14:42:07;1.48;;;1.38;;
19004;SDS011;9635;52.078;8.648;2023-04-01T14:52:57;3.70;;;1.50;;
19004;SDS011;9635;52.078;8.648;2023-04-01T14:58:08;1.58;;;1.48;;
19004;SDS011;9635;52.078;8.648;2023-04-01T15:03:13;1.48;;;1.38;;
19004;SDS011;9635;52.078;8.648;2023-04-01T15:08:23;1.70;;;1.60;;
19004;SDS011;9635;52.078;8.648;2023-04-01T15:13:35;3.28;;;1.60;;
19004;SDS011;9635;52.078;8.648;2023-04-01T15:18:56;1.40;;;1.30;;
19004;SDS011;9635;52.078;8.648;2023-04-01T15:24:10;1.20;;;1.10;;
19004;SDS011;9635;52.078;8.648;2023-04-01T15:29:26;1.98;;;1.13;;
19004;SDS011;9635;52.078;8.648;2023-04-01T15:34:42;1.13;;;0.90;;
19004;SDS011;9635;52.078;8.648;2023-04-01T15:39:56;0.52;;;0.52;;
19004;SDS011;9635;52.078;8.648;2023-04-01T15:45:07;0.75;;;0.65;;
19004;SDS011;9635;52.078;8.648;2023-04-01T15:55:59;3.17;;;1.38;;
19004;SDS011;9635;52.078;8.648;2023-04-01T16:01:15;0.60;;;0.60;;
19004;SDS011;9635;52.078;8.648;2023-04-01T16:11:57;0.40;;;0.40;;
19004;SDS011;9635;52.078;8.648;2023-04-01T16:17:14;1.05;;;0.38;;
19004;SDS011;9635;52.078;8.648;2023-04-01T16:22:37;0.80;;;0.50;;
19004;SDS011;9635;52.078;8.648;2023-04-01T16:27:44;1.02;;;0.47;;
19004;SDS011;9635;52.078;8.648;2023-04-01T16:32:57;2.78;;;1.75;;
19004;SDS011;9635;52.078;8.648;2023-04-01T16:38:08;1.75;;;0.60;;
19004;SDS011;9635;52.078;8.648;2023-04-01T16:43:21;0.47;;;0.43;;
19004;SDS011;9635;52.078;8.648;2023-04-01T16:48:34;2.92;;;0.45;;
19004;SDS011;9635;52.078;8.648;2023-04-01T16:53:52;0.95;;;0.70;;
19004;SDS011;9635;52.078;8.648;2023-04-01T16:59:13;3.15;;;2.60;;
19004;SDS011;9635;52.078;8.648;2023-04-01T17:04:26;2.72;;;1.40;;
19004;SDS011;9635;52.078;8.648;2023-04-01T17:09:39;1.98;;;1.58;;
19004;SDS011;9635;52.078;8.648;2023-04-01T17:14:54;2.30;;;2.20;;
19004;SDS011;9635;52.078;8.648;2023-04-01T17:20:14;2.45;;;2.28;;
19004;SDS011;9635;52.078;8.648;2023-04-01T17:25:38;2.38;;;2.22;;
19004;SDS011;9635;52.078;8.648;2023-04-01T17:31:03;2.28;;;2.17;;
19004;SDS011;9635;52.078;8.648;2023-04-01T17:36:16;3.67;;;2.92;;
19004;SDS011;9635;52.078;8.648;2023-04-01T17:41:29;3.30;;;3.08;;
19004;SDS011;9635;52.078;8.648;2023-04-01T17:46:47;3.20;;;2.90;;
19004;SDS011;9635;52.078;8.648;2023-04-01T17:52:03;6.38;;;3.20;;
19004;SDS011;9635;52.078;8.648;2023-04-01T17:57:30;3.80;;;3.50;;
19004;SDS011;9635;52.078;8.648;2023-04-01T18:02:45;3.63;;;3.15;;
19004;SDS011;9635;52.078;8.648;2023-04-01T18:08:05;4.30;;;3.33;;
19004;SDS011;9635;52.078;8.648;2023-04-01T18:13:19;4.28;;;3.88;;
19004;SDS011;9635;52.078;8.648;2023-04-01T18:18:37;4.13;;;3.83;;
19004;SDS011;9635;52.078;8.648;2023-04-01T18:23:53;3.97;;;3.40;;
19004;SDS011;9635;52.078;8.648;2023-04-01T18:29:04;3.78;;;3.47;;
19004;SDS011;9635;52.078;8.648;2023-04-01T18:34:27;3.30;;;3.00;;
19004;SDS011;9635;52.078;8.648;2023-04-01T18:39:42;3.45;;;3.15;;
19004;SDS011;9635;52.078;8.648;2023-04-01T18:44:52;3.30;;;3.00;;
19004;SDS011;9635;52.078;8.648;2023-04-01T18:50:02;2.47;;;2.28;;
19004;SDS011;9635;52.078;8.648;2023-04-01T18:55:23;2.75;;;2.55;;
19004;SDS011;9635;52.078;8.648;2023-04-01T19:00:35;2.83;;;2.40;;
19004;SDS011;9635;52.078;8.648;2023-04-01T19:05:44;3.22;;;3.03;;
19004;SDS011;9635;52.078;8.648;2023-04-01T19:10:51;2.90;;;2.70;;
19004;SDS011;9635;52.078;8.648;2023-04-01T19:16:05;3.30;;;3.00;;
19004;SDS011;9635;52.078;8.648;2023-04-01T19:21:18;3.53;;;3.22;;
19004;SDS011;9635;52.078;8.648;2023-04-01T19:26:25;3.67;;;3.35;;
19004;SDS011;9635;52.078;8.648;2023-04-01T19:31:38;3.53;;;3.28;;
19004;SDS011;9635;52.078;8.648;2023-04-01T19:36:52;4.25;;;3.92;;
19004;SDS011;9635;52.078;8.648;2023-04-01T19:42:00;3.80;;;3.50;;
19004;SDS011;9635;52.078;8.648;2023-04-01T19:47:15;3.78;;;3.47;;
19004;SDS011;9635;52.078;8.648;2023-04-01T19:52:26;4.25;;;3.85;;
19004;SDS011;9635;52.078;8.648;2023-04-01T19:57:35;4.30;;;3.80;;
19004;SDS011;9635;52.078;8.648;2023-04-01T20:02:50;3.80;;;3.38;;
19004;SDS011;9635;52.078;8.648;2023-04-01T20:08:02;4.30;;;3.90;;
19004;SDS011;9635;52.078;8.648;2023-04-01T20:13:15;4.28;;;3.88;;
19004;SDS011;9635;52.078;8.648;2023-04-01T20:18:32;5.13;;;4.70;;
19004;SDS011;9635;52.078;8.648;2023-04-01T20:23:42;5.22;;;4.72;;
19004;SDS011;9635;52.078;8.648;2023-04-01T20:28:58;6.32;;;5.72;;
19004;SDS011;9635;52.078;8.648;2023-04-01T20:34:19;8.02;;;6.88;;
19004;SDS011;9635;52.078;8.648;2023-04-01T20:39:48;5.50;;;5.00;;
19004;SDS011;9635;52.078;8.648;2023-04-01T20:45:14;4.30;;;4.00;;
19004;SDS011;9635;52.078;8.648;2023-04-01T20:50:25;4.55;;;4.15;;
19004;SDS011;9635;52.078;8.648;2023-04-01T20:55:47;5.10;;;4.60;;
19004;SDS011;9635;52.078;8.648;2023-04-01T21:01:25;5.03;;;4.00;;
19004;SDS011;9635;52.078;8.648;2023-04-01T21:06:45;4.82;;;4.32;;
19004;SDS011;9635;52.078;8.648;2023-04-01T21:11:59;5.50;;;5.03;;
19004;SDS011;9635;52.078;8.648;2023-04-01T21:17:13;5.07;;;4.43;;
19004;SDS011;9635;52.078;8.648;2023-04-01T21:28:08;4.47;;;4.13;;
19004;SDS011;9635;52.078;8.648;2023-04-01T21:33:27;4.65;;;4.10;;
19004;SDS011;9635;52.078;8.648;2023-04-01T21:38:42;5.65;;;4.75;;
19004;SDS011;9635;52.078;8.648;2023-04-01T21:44:09;4.57;;;4.10;;
19004;SDS011;9635;52.078;8.648;2023-04-01T21:49:39;5.00;;;4.50;;
19004;SDS011;9635;52.078;8.648;2023-04-01T22:01:06;4.93;;;4.28;;
19004;SDS011;9635;52.078;8.648;2023-04-01T22:06:24;4.85;;;3.80;;
19004;SDS011;9635;52.078;8.648;2023-04-01T22:11:38;4.27;;;3.83;;
19004;SDS011;9635;52.078;8.648;2023-04-01T22:16:53;3.33;;;3.03;;
19004;SDS011;9635;52.078;8.648;2023-04-01T22:22:00;2.75;;;2.55;;
19004;SDS011;9635;52.078;8.648;2023-04-01T22:27:12;2.53;;;2.05;;
19004;SDS011;9635;52.078;8.648;2023-04-01T22:32:23;2.03;;;1.63;;
19004;SDS011;9635;52.078;8.648;2023-04-01T22:37:31;2.47;;;1.58;;
19004;SDS011;9635;52.078;8.648;2023-04-01T22:42:41;2.15;;;2.00;;
19004;SDS011;9635;52.078;8.648;2023-04-01T22:47:47;4.10;;;3.60;;
19004;SDS011;9635;52.078;8.648;2023-04-01T22:53:05;2.92;;;2.72;;
19004;SDS011;9635;52.078;8.648;2023-04-01T22:58:16;4.65;;;3.72;;
19004;SDS011;9635;52.078;8.648;2023-04-01T23:03:26;7.07;;;3.60;;
19004;SDS011;9635;52.078;8.648;2023-04-01T23:08:45;4.47;;;3.60;;
19004;SDS011;9635;52.078;8.648;2023-04-01T23:14:02;4.35;;;3.53;;
19004;SDS011;9635;52.078;8.648;2023-04-01T23:19:22;4.37;;;3.70;;
19004;SDS011;9635;52.078;8.648;2023-04-01T23:24:30;4.70;;;4.18;;
19004;SDS011;9635;52.078;8.648;2023-04-01T23:29:37;4.28;;;3.88;;
19004;SDS011;9635;52.078;8.648;2023-04-01T23:34:47;4.82;;;4.20;;
19004;SDS011;9635;52.078;8.648;2023-04-01T23:39:52;4.90;;;4.40;;
19004;SDS011;9635;52.078;8.648;2023-04-01T23:44:56;7.68;;;5.00;;
19004;SDS011;9635;52.078;8.648;2023-04-01T23:50:04;8.82;;;5.15;;
19004;SDS011;9635;52.078;8.648;2023-04-01T23:55:13;9.63;;;6.30;;
